createdAt,value
2023-04-15T00:02:20.985Z,72.54
2023-04-15T00:04:49.396Z,72.63
2023-04-15T00:07:17.885Z,72.64
2023-04-15T00:09:46.093Z,73.27
2023-04-15T00:12:13.898Z,73.10
2023-04-15T00:14:41.700Z,73.10
2023-04-15T00:17:09.477Z,73.12
2023-04-15T00:19:37.553Z,73.00
2023-04-15T00:22:06.171Z,73.12
2023-04-15T00:24:34.048Z,73.44
2023-04-15T00:27:01.887Z,73.14
2023-04-15T00:29:30.576Z,73.28
2023-04-15T00:32:01.420Z,73.64
2023-04-15T00:34:31.294Z,73.63
2023-04-15T00:36:59.798Z,74.35
2023-04-15T00:39:28.199Z,74.35
2023-04-15T00:41:57.396Z,74.04
2023-04-15T00:44:25.637Z,74.37
2023-04-15T00:46:53.954Z,74.78
2023-04-15T00:49:23.012Z,74.43
2023-04-15T00:51:51.375Z,74.23
2023-04-15T00:54:19.207Z,74.17
2023-04-15T00:56:47.010Z,74.06
2023-04-15T00:59:15.133Z,74.23
2023-04-15T01:01:44.428Z,74.34
2023-04-15T01:04:13.129Z,74.77
2023-04-15T01:06:41.139Z,74.83
2023-04-15T01:09:09.028Z,75.16
2023-04-15T01:11:36.878Z,75.23
2023-04-15T01:14:04.816Z,74.98
2023-04-15T01:16:32.836Z,75.10
2023-04-15T01:19:02.066Z,75.09
2023-04-15T01:21:30.386Z,75.60
2023-04-15T01:23:58.840Z,75.39
2023-04-15T01:26:27.296Z,75.58
2023-04-15T01:28:56.254Z,75.48
2023-04-15T01:31:25.176Z,75.34
2023-04-15T01:33:53.012Z,75.56
2023-04-15T01:36:21.152Z,75.75
2023-04-15T01:38:48.971Z,75.52
2023-04-15T01:41:17.260Z,75.81
2023-04-15T01:43:45.646Z,75.65
2023-04-15T01:46:13.505Z,75.90
2023-04-15T01:48:41.272Z,75.58
2023-04-15T01:51:09.116Z,75.50
2023-04-15T01:53:37.333Z,75.53
2023-04-15T01:56:05.579Z,75.97
2023-04-15T01:58:33.705Z,76.63
2023-04-15T02:01:02.929Z,76.08
2023-04-15T02:03:33.917Z,75.81
2023-04-15T02:06:02.474Z,75.81
2023-04-15T02:08:30.404Z,75.74
2023-04-15T02:10:58.259Z,75.74
2023-04-15T02:13:27.022Z,75.87
2023-04-15T02:15:57.091Z,76.61
2023-04-15T02:18:24.847Z,77.24
2023-04-15T02:20:52.854Z,77.44
2023-04-15T02:23:20.680Z,77.49
2023-04-15T02:25:53.503Z,77.19
2023-04-15T02:28:22.425Z,77.38
2023-04-15T02:30:54.707Z,77.14
2023-04-15T02:33:22.557Z,76.89
2023-04-15T02:35:50.903Z,77.12
2023-04-15T02:38:18.827Z,77.04
2023-04-15T02:40:46.902Z,77.31
2023-04-15T02:43:14.685Z,77.35
2023-04-15T02:45:43.744Z,77.57
2023-04-15T02:48:11.897Z,78.56
2023-04-15T02:50:40.709Z,77.70
2023-04-15T02:53:09.604Z,77.83
2023-04-15T02:55:37.473Z,77.43
2023-04-15T02:58:05.281Z,77.87
2023-04-15T03:00:33.165Z,78.36
2023-04-15T03:03:06.103Z,78.14
2023-04-15T03:05:34.285Z,77.84
2023-04-15T03:08:03.065Z,77.75
2023-04-15T03:10:30.955Z,77.58
2023-04-15T03:12:58.715Z,78.11
2023-04-15T03:15:27.131Z,79.17
2023-04-15T03:17:55.687Z,79.26
2023-04-15T03:20:24.068Z,79.37
2023-04-15T03:22:52.610Z,79.53
2023-04-15T03:25:21.619Z,80.01
2023-04-15T03:27:49.483Z,80.71
2023-04-15T03:30:18.057Z,81.88
2023-04-15T03:32:46.783Z,82.66
2023-04-15T03:35:14.692Z,83.24
2023-04-15T03:37:42.456Z,85.04
2023-04-15T03:40:10.944Z,84.65
2023-04-15T03:42:38.740Z,85.08
2023-04-15T03:45:07.597Z,85.42
2023-04-15T03:47:35.472Z,85.68
2023-04-15T03:50:03.575Z,86.09
2023-04-15T03:52:34.085Z,85.86
2023-04-15T03:55:02.318Z,86.63
2023-04-15T03:57:31.182Z,87.40
2023-04-15T03:59:58.956Z,87.33
2023-04-15T04:02:28.255Z,87.46
2023-04-15T04:04:56.408Z,87.74
2023-04-15T04:07:24.614Z,88.13
2023-04-15T04:09:57.725Z,88.44
2023-04-15T04:12:25.633Z,89.06
2023-04-15T04:14:53.454Z,88.84
2023-04-15T04:17:21.643Z,89.07
2023-04-15T04:19:49.450Z,89.27
2023-04-15T04:22:17.262Z,89.36
2023-04-15T04:24:45.159Z,89.67
2023-04-15T04:27:12.894Z,89.57
2023-04-15T04:29:41.042Z,90.10
2023-04-15T04:32:08.874Z,90.13
2023-04-15T04:34:36.816Z,90.82
2023-04-15T04:37:04.610Z,91.05
2023-04-15T04:39:32.717Z,90.81
2023-04-15T04:42:01.378Z,90.62
2023-04-15T04:44:29.138Z,91.08
2023-04-15T04:46:57.355Z,91.97
2023-04-15T04:49:25.523Z,91.51
2023-04-15T04:51:53.526Z,91.91
2023-04-15T04:54:21.386Z,91.71
2023-04-15T04:56:49.198Z,91.45
2023-04-15T04:59:18.984Z,91.31
2023-04-15T05:01:47.961Z,91.55
2023-04-15T05:04:15.951Z,91.82
2023-04-15T05:06:43.777Z,91.92
2023-04-15T05:09:11.591Z,92.60
2023-04-15T05:11:39.353Z,92.43
2023-04-15T05:14:07.564Z,92.43
2023-04-15T05:16:35.391Z,92.49
2023-04-15T05:19:03.352Z,92.31
2023-04-15T05:21:31.684Z,92.91
2023-04-15T05:23:59.500Z,93.62
2023-04-15T05:26:27.480Z,93.34
2023-04-15T05:28:55.457Z,94.10
2023-04-15T05:31:23.404Z,93.90
2023-04-15T05:33:51.304Z,94.26
2023-04-15T05:36:19.115Z,94.28
2023-04-15T05:38:46.929Z,94.53
2023-04-15T05:41:17.187Z,94.63
2023-04-15T05:43:47.071Z,94.15
2023-04-15T05:46:14.869Z,94.09
2023-04-15T05:48:42.649Z,94.70
2023-04-15T05:51:11.026Z,94.26
2023-04-15T05:53:38.830Z,94.80
2023-04-15T05:56:07.473Z,94.79
2023-04-15T05:58:35.773Z,94.84
2023-04-15T06:01:04.158Z,94.99
2023-04-15T06:03:32.167Z,94.91
2023-04-15T06:06:00.985Z,94.18
2023-04-15T06:08:28.837Z,95.19
2023-04-15T06:10:56.842Z,95.10
2023-04-15T06:13:24.799Z,94.81
2023-04-15T06:15:53.560Z,95.36
2023-04-15T06:18:21.483Z,95.19
2023-04-15T06:20:49.530Z,95.51
2023-04-15T06:23:17.380Z,95.50
2023-04-15T06:25:45.796Z,95.60
2023-04-15T06:28:13.672Z,95.69
2023-04-15T06:30:41.610Z,96.02
2023-04-15T06:33:10.747Z,96.00
2023-04-15T06:35:39.367Z,96.56
2023-04-15T06:38:07.200Z,96.51
2023-04-15T06:40:35.432Z,95.68
2023-04-15T06:43:04.777Z,95.49
2023-04-15T06:45:32.642Z,95.44
2023-04-15T06:48:00.895Z,95.31
2023-04-15T06:50:28.713Z,95.16
2023-04-15T06:52:57.363Z,95.36
2023-04-15T06:55:25.205Z,95.55
2023-04-15T06:57:53.004Z,96.31
2023-04-15T07:00:21.000Z,96.16
2023-04-15T07:02:48.964Z,95.25
2023-04-15T07:05:17.036Z,95.06
2023-04-15T07:07:45.278Z,95.54
2023-04-15T07:10:14.895Z,95.84
2023-04-15T07:12:42.844Z,95.32
2023-04-15T07:15:11.148Z,95.90
2023-04-15T07:17:38.999Z,95.99
2023-04-15T07:20:08.173Z,95.67
2023-04-15T07:22:35.986Z,96.06
2023-04-15T07:25:04.363Z,95.58
2023-04-15T07:27:32.531Z,95.79
2023-04-15T07:30:00.282Z,96.46
2023-04-15T07:32:28.057Z,96.62
2023-04-15T07:34:55.856Z,96.69
2023-04-15T07:37:24.011Z,96.82
2023-04-15T07:39:52.910Z,97.01
2023-04-15T07:42:21.379Z,96.58
2023-04-15T07:44:49.152Z,96.55
2023-04-15T07:47:16.936Z,97.08
2023-04-15T07:49:45.197Z,97.07
2023-04-15T07:52:13.199Z,96.53
2023-04-15T07:54:40.975Z,96.79
2023-04-15T07:57:09.841Z,98.71
2023-04-15T07:59:40.077Z,99.03
2023-04-15T08:02:08.497Z,98.99
2023-04-15T08:04:36.642Z,99.60
2023-04-15T08:07:04.998Z,98.66
2023-04-15T08:09:32.912Z,99.05
2023-04-15T08:12:00.954Z,99.77
2023-04-15T08:14:29.106Z,99.41
2023-04-15T08:16:57.120Z,99.70
2023-04-15T08:19:25.345Z,99.53
2023-04-15T08:21:53.137Z,99.54
2023-04-15T08:24:21.269Z,99.64
2023-04-15T08:26:49.150Z,98.94
2023-04-15T08:29:17.253Z,99.20
2023-04-15T08:31:45.638Z,98.39
2023-04-15T08:34:13.520Z,98.78
2023-04-15T08:36:42.366Z,97.65
2023-04-15T08:39:12.794Z,97.70
2023-04-15T08:41:51.648Z,97.21
2023-04-15T08:44:21.683Z,97.99
2023-04-15T08:46:52.118Z,97.75
2023-04-15T08:49:22.092Z,98.39
2023-04-15T08:51:50.266Z,97.21
2023-04-15T08:54:18.917Z,97.42
2023-04-15T08:56:47.590Z,97.68
2023-04-15T08:59:16.529Z,97.77
2023-04-15T09:01:46.136Z,96.90
2023-04-15T09:04:14.490Z,96.89
2023-04-15T09:06:42.481Z,96.18
2023-04-15T09:09:10.527Z,95.78
2023-04-15T09:11:41.064Z,95.92
2023-04-15T09:14:09.267Z,95.90
2023-04-15T09:17:04.953Z,96.09
2023-04-15T09:19:36.429Z,95.83
2023-04-15T09:22:04.320Z,94.78
2023-04-15T09:24:42.035Z,95.02
2023-04-15T09:27:11.152Z,95.85
2023-04-15T09:29:41.634Z,95.95
2023-04-15T09:32:14.680Z,94.64
2023-04-15T09:34:43.182Z,96.42
2023-04-15T09:37:20.628Z,96.33
2023-04-15T09:39:57.005Z,96.99
2023-04-15T09:42:25.094Z,96.12
2023-04-15T09:44:53.135Z,94.73
2023-04-15T09:47:31.496Z,94.98
2023-04-15T09:50:01.513Z,95.16
2023-04-15T09:52:30.557Z,95.26
2023-04-15T09:55:00.972Z,94.14
2023-04-15T09:57:37.345Z,93.80
2023-04-15T10:00:08.223Z,93.48
2023-04-15T10:02:40.587Z,93.36
2023-04-15T10:05:15.241Z,91.80
2023-04-15T10:07:43.885Z,92.25
2023-04-15T10:10:12.738Z,92.55
2023-04-15T10:12:42.563Z,90.47
2023-04-15T10:15:17.406Z,90.88
2023-04-15T10:17:48.008Z,90.72
2023-04-15T10:20:17.635Z,89.92
2023-04-15T10:22:46.811Z,88.93
2023-04-15T10:25:16.491Z,87.17
2023-04-15T10:27:45.125Z,87.99
2023-04-15T10:30:13.108Z,87.24
2023-04-15T10:32:41.956Z,87.61
2023-04-15T10:35:11.186Z,85.87
2023-04-15T10:37:39.472Z,86.14
2023-04-15T10:40:31.867Z,88.57
2023-04-15T10:43:02.543Z,87.25
2023-04-15T10:45:37.597Z,88.00
2023-04-15T10:48:09.008Z,87.75
2023-04-15T10:50:37.645Z,88.18
2023-04-15T10:53:05.848Z,88.50
2023-04-15T10:55:34.649Z,86.51
2023-04-15T10:58:03.119Z,87.74
2023-04-15T11:00:32.897Z,88.33
2023-04-15T11:03:09.477Z,86.82
2023-04-15T11:05:54.195Z,85.85
2023-04-15T11:08:58.785Z,86.66
2023-04-15T11:12:09.550Z,87.74
2023-04-15T11:14:41.970Z,87.27
2023-04-15T11:17:10.005Z,88.92
2023-04-15T11:19:38.939Z,88.61
2023-04-15T11:22:11.281Z,87.21
2023-04-15T11:24:51.884Z,87.30
2023-04-15T11:27:23.928Z,88.16
2023-04-15T11:29:52.921Z,88.83
2023-04-15T11:32:21.598Z,88.70
2023-04-15T11:34:49.458Z,89.31
2023-04-15T11:37:17.275Z,90.16
2023-04-15T11:39:45.123Z,90.45
2023-04-15T11:42:19.285Z,89.64
2023-04-15T11:44:47.070Z,88.65
2023-04-15T11:47:25.018Z,88.28
2023-04-15T11:49:52.985Z,89.35
2023-04-15T11:52:20.843Z,90.29
2023-04-15T11:54:48.694Z,88.88
2023-04-15T11:57:16.607Z,91.00
2023-04-15T11:59:46.039Z,92.08
2023-04-15T12:02:14.516Z,92.24
2023-04-15T12:04:42.842Z,91.87
2023-04-15T12:07:12.552Z,92.23
2023-04-15T12:09:40.720Z,92.93
2023-04-15T12:12:08.864Z,91.72
2023-04-15T12:14:38.244Z,91.63
2023-04-15T12:17:06.783Z,92.38
2023-04-15T12:19:37.318Z,92.53
2023-04-15T12:22:15.863Z,91.51
2023-04-15T12:24:47.738Z,90.89
2023-04-15T12:27:17.682Z,92.12
2023-04-15T12:29:45.690Z,91.30
2023-04-15T12:32:19.720Z,93.30
2023-04-15T12:34:53.220Z,95.56
2023-04-15T12:37:21.552Z,95.78
2023-04-15T12:39:50.410Z,96.89
2023-04-15T12:42:18.852Z,96.98
2023-04-15T12:44:47.252Z,94.77
2023-04-15T12:47:15.335Z,95.44
2023-04-15T12:49:43.228Z,96.58
2023-04-15T12:52:13.753Z,96.71
2023-04-15T12:54:41.641Z,94.96
2023-04-15T12:57:09.456Z,94.62
2023-04-15T12:59:37.654Z,94.48
2023-04-15T13:02:05.635Z,94.67
2023-04-15T13:04:33.718Z,95.69
2023-04-15T13:07:02.303Z,96.97
2023-04-15T13:09:32.551Z,96.29
2023-04-15T13:12:01.454Z,94.74
2023-04-15T13:14:31.647Z,95.15
2023-04-15T13:16:59.553Z,94.63
2023-04-15T13:19:27.588Z,95.78
2023-04-15T13:21:55.405Z,95.68
2023-04-15T13:24:23.173Z,94.70
2023-04-15T13:26:51.052Z,95.80
2023-04-15T13:29:18.975Z,96.72
2023-04-15T13:31:46.888Z,96.51
2023-04-15T13:34:14.721Z,97.17
2023-04-15T13:36:42.512Z,97.19
2023-04-15T13:39:10.320Z,97.20
2023-04-15T13:41:38.243Z,95.14
2023-04-15T13:44:06.536Z,96.17
2023-04-15T13:46:34.628Z,95.35
2023-04-15T13:49:02.450Z,97.31
2023-04-15T13:51:30.898Z,95.83
2023-04-15T13:53:58.679Z,96.21
2023-04-15T13:56:26.583Z,96.04
2023-04-15T13:58:58.955Z,95.65
2023-04-15T14:01:27.211Z,96.68
2023-04-15T14:03:58.192Z,96.84
2023-04-15T14:06:28.801Z,97.07
2023-04-15T14:08:56.638Z,94.87
2023-04-15T14:11:24.457Z,92.10
2023-04-15T14:13:52.356Z,92.99
2023-04-15T14:16:20.256Z,95.73
2023-04-15T14:18:48.137Z,92.36
2023-04-15T14:21:15.990Z,92.47
2023-04-15T14:23:45.552Z,91.74
2023-04-15T14:26:14.029Z,92.56
2023-04-15T14:28:44.948Z,92.29
2023-04-15T14:31:13.289Z,93.29
2023-04-15T14:33:41.217Z,94.94
2023-04-15T14:36:10.025Z,95.33
2023-04-15T14:38:40.989Z,95.31
2023-04-15T14:41:09.898Z,91.14
2023-04-15T14:43:39.161Z,92.41
2023-04-15T14:46:08.449Z,91.88
2023-04-15T14:48:37.128Z,91.68
2023-04-15T14:51:05.616Z,93.30
2023-04-15T14:53:33.577Z,93.21
2023-04-15T14:56:01.599Z,94.31
2023-04-15T14:58:29.394Z,93.64
2023-04-15T15:00:57.401Z,92.75
2023-04-15T15:03:25.669Z,93.69
2023-04-15T15:05:54.001Z,93.69
2023-04-15T15:08:21.980Z,94.57
2023-04-15T15:10:50.125Z,92.16
2023-04-15T15:13:19.188Z,93.67
2023-04-15T15:15:49.326Z,94.07
2023-04-15T15:18:19.313Z,92.48
2023-04-15T15:20:47.783Z,93.71
2023-04-15T15:23:15.904Z,92.86
2023-04-15T15:25:45.659Z,92.46
2023-04-15T15:28:13.565Z,91.37
2023-04-15T15:30:41.463Z,91.88
2023-04-15T15:33:09.300Z,92.88
2023-04-15T15:35:37.191Z,94.23
2023-04-15T15:38:05.350Z,91.18
2023-04-15T15:40:33.462Z,91.65
2023-04-15T15:43:01.247Z,92.74
2023-04-15T15:45:29.804Z,94.78
2023-04-15T15:47:58.841Z,96.47
2023-04-15T15:50:26.817Z,97.21
2023-04-15T15:52:55.309Z,98.02
2023-04-15T15:55:25.280Z,97.88
2023-04-15T15:57:54.280Z,97.58
2023-04-15T16:00:23.112Z,97.76
2023-04-15T16:03:06.716Z,98.27
2023-04-15T16:05:36.314Z,97.99
2023-04-15T16:08:04.681Z,98.31
2023-04-15T16:10:32.706Z,98.76
2023-04-15T16:13:00.665Z,99.25
2023-04-15T16:15:28.572Z,99.25
2023-04-15T16:17:56.452Z,98.95
2023-04-15T16:20:24.516Z,99.04
2023-04-15T16:22:52.540Z,99.25
2023-04-15T16:25:20.537Z,99.11
2023-04-15T16:28:00.762Z,99.26
2023-04-15T16:30:31.267Z,99.20
2023-04-15T16:32:59.172Z,99.43
2023-04-15T16:35:27.184Z,99.16
2023-04-15T16:37:54.926Z,99.26
2023-04-15T16:40:22.717Z,99.49
2023-04-15T16:42:52.366Z,99.53
2023-04-15T16:45:20.172Z,99.55
2023-04-15T16:47:50.473Z,99.82
2023-04-15T16:50:18.438Z,99.81
2023-04-15T16:52:46.451Z,99.85
2023-04-15T16:55:14.336Z,99.97
2023-04-15T16:58:00.645Z,99.96
2023-04-15T17:00:31.711Z,99.91
2023-04-15T17:03:00.794Z,99.98
2023-04-15T17:05:30.787Z,100.00
2023-04-15T17:07:59.233Z,100.00
2023-04-15T17:10:27.897Z,100.00
2023-04-15T17:12:57.228Z,100.00
2023-04-15T17:15:26.344Z,100.00
2023-04-15T17:17:54.505Z,100.00
2023-04-15T17:20:22.488Z,99.98
2023-04-15T17:22:50.543Z,99.99
2023-04-15T17:25:19.366Z,100.00
2023-04-15T17:27:47.179Z,99.86
2023-04-15T17:30:14.998Z,99.42
2023-04-15T17:32:42.885Z,100.00
2023-04-15T17:35:10.864Z,99.84
2023-04-15T17:37:39.126Z,100.00
2023-04-15T17:40:08.935Z,100.00
2023-04-15T17:42:36.969Z,100.00
2023-04-15T17:45:05.667Z,100.00
2023-04-15T17:47:33.809Z,100.00
2023-04-15T17:50:02.044Z,100.00
2023-04-15T17:52:30.009Z,100.00
2023-04-15T17:54:58.014Z,100.00
2023-04-15T17:57:26.165Z,99.96
2023-04-15T17:59:54.046Z,99.98
2023-04-15T18:02:22.144Z,99.45
2023-04-15T18:04:50.575Z,99.66
2023-04-15T18:07:18.772Z,99.77
2023-04-15T18:09:47.373Z,99.87
2023-04-15T18:12:15.253Z,100.00
2023-04-15T18:14:43.685Z,100.00
2023-04-15T18:17:13.394Z,99.97
2023-04-15T18:19:41.668Z,100.00
2023-04-15T18:22:09.786Z,99.99
2023-04-15T18:24:37.690Z,100.00
2023-04-15T18:27:05.666Z,99.88
2023-04-15T18:29:34.964Z,100.00
2023-04-15T18:32:03.423Z,99.97
2023-04-15T18:34:31.582Z,100.00
2023-04-15T18:37:01.169Z,99.98
2023-04-15T18:39:29.287Z,99.98
2023-04-15T18:41:57.550Z,100.00
2023-04-15T18:44:25.730Z,100.00
2023-04-15T18:46:53.966Z,99.95
2023-04-15T18:49:22.293Z,100.00
2023-04-15T18:51:51.496Z,99.99
2023-04-15T18:54:19.592Z,100.00
2023-04-15T18:56:48.520Z,100.00
2023-04-15T18:59:29.740Z,100.00
2023-04-15T19:02:00.321Z,100.00
2023-04-15T19:04:29.475Z,99.75
2023-04-15T19:07:00.437Z,99.94
2023-04-15T19:09:29.257Z,99.99
2023-04-15T19:11:57.640Z,99.65
2023-04-15T19:14:25.902Z,99.89
2023-04-15T19:16:56.014Z,99.85
2023-04-15T19:19:26.942Z,98.66
2023-04-15T19:21:55.160Z,98.60
2023-04-15T19:24:23.180Z,99.29
2023-04-15T19:26:51.291Z,99.05
2023-04-15T19:29:22.664Z,98.32
2023-04-15T19:31:50.900Z,98.61
2023-04-15T19:34:19.072Z,98.87
2023-04-15T19:36:47.244Z,99.38
2023-04-15T19:39:15.493Z,99.87
2023-04-15T19:41:44.377Z,100.00
2023-04-15T19:44:13.502Z,99.94
2023-04-15T19:46:44.178Z,99.59
2023-04-15T19:49:17.294Z,98.89
2023-04-15T19:51:45.455Z,99.41
2023-04-15T19:54:13.309Z,99.43
2023-04-15T19:56:41.255Z,99.49
2023-04-15T19:59:09.266Z,99.19
2023-04-15T20:01:37.205Z,99.36
2023-04-15T20:04:05.493Z,99.52
2023-04-15T20:06:33.687Z,99.94
2023-04-15T20:09:02.068Z,99.92
2023-04-15T20:12:44.880Z,99.87
2023-04-15T20:14:17.942Z,99.99
2023-04-15T20:16:45.983Z,99.77
2023-04-15T20:19:13.979Z,99.88
2023-04-15T20:21:42.379Z,99.56
2023-04-15T20:24:13.448Z,99.46
2023-04-15T20:26:41.232Z,99.53
2023-04-15T20:29:09.004Z,99.45
2023-04-15T20:31:38.875Z,98.98
2023-04-15T20:34:07.020Z,98.72
2023-04-15T20:36:35.534Z,98.53
2023-04-15T20:39:03.827Z,98.47
2023-04-15T20:41:31.983Z,98.75
2023-04-15T20:43:59.850Z,98.77
2023-04-15T20:46:28.095Z,98.92
2023-04-15T20:48:56.224Z,99.25
2023-04-15T20:51:24.248Z,99.30
2023-04-15T20:53:52.225Z,100.00
2023-04-15T20:56:20.385Z,100.00
2023-04-15T20:58:48.215Z,100.00
2023-04-15T21:01:16.147Z,100.00
2023-04-15T21:03:44.193Z,100.00
2023-04-15T21:06:12.315Z,100.00
2023-04-15T21:08:41.237Z,100.00
2023-04-15T21:11:09.141Z,100.00
2023-04-15T21:13:36.962Z,100.00
2023-04-15T21:16:05.798Z,100.00
2023-04-15T21:18:33.589Z,100.00
2023-04-15T21:21:02.463Z,100.00
2023-04-15T21:23:30.601Z,100.00
2023-04-15T21:25:58.711Z,100.00
2023-04-15T21:28:27.985Z,100.00
2023-04-15T21:30:59.380Z,100.00
2023-04-15T21:33:27.196Z,100.00
2023-04-15T21:36:00.855Z,100.00
2023-04-15T21:38:28.980Z,100.00
2023-04-15T21:40:57.500Z,100.00
2023-04-15T21:43:25.725Z,100.00
2023-04-15T21:46:22.313Z,100.00
2023-04-15T21:48:41.492Z,100.00
2023-04-15T21:51:09.590Z,100.00
2023-04-15T21:53:37.414Z,100.00
2023-04-15T21:56:08.388Z,100.00
2023-04-15T21:58:36.454Z,100.00
2023-04-15T22:01:04.762Z,100.00
2023-04-15T22:03:34.823Z,100.00
2023-04-15T22:06:03.931Z,100.00
2023-04-15T22:08:38.639Z,100.00
2023-04-15T22:11:28.865Z,100.00
2023-04-15T22:13:58.596Z,100.00
2023-04-15T22:16:26.946Z,100.00
2023-04-15T22:18:55.615Z,100.00
2023-04-15T22:21:23.826Z,100.00
2023-04-15T22:23:52.788Z,100.00
2023-04-15T22:26:20.704Z,100.00
2023-04-15T22:28:48.473Z,100.00
2023-04-15T22:31:16.420Z,100.00
2023-04-15T22:33:44.249Z,100.00
2023-04-15T22:36:13.494Z,100.00
2023-04-15T22:38:41.299Z,100.00
2023-04-15T22:41:09.572Z,100.00
2023-04-15T22:43:37.545Z,100.00
2023-04-15T22:46:05.499Z,100.00
2023-04-15T22:48:34.695Z,100.00
2023-04-15T22:51:04.996Z,100.00
2023-04-15T22:53:32.743Z,100.00
2023-04-15T22:56:00.605Z,100.00
2023-04-15T22:58:28.402Z,100.00
2023-04-15T23:00:56.223Z,100.00
2023-04-15T23:03:39.997Z,100.00
2023-04-15T23:06:25.035Z,100.00
2023-04-15T23:08:53.319Z,100.00
2023-04-15T23:11:26.131Z,100.00
2023-04-15T23:13:57.644Z,100.00
2023-04-15T23:16:25.943Z,100.00
2023-04-15T23:18:54.080Z,100.00
2023-04-15T23:21:22.475Z,100.00
2023-04-15T23:23:51.945Z,100.00
2023-04-15T23:26:19.705Z,100.00
2023-04-15T23:28:47.461Z,100.00
2023-04-15T23:31:15.262Z,100.00
2023-04-15T23:33:43.051Z,100.00
2023-04-15T23:36:10.971Z,100.00
2023-04-15T23:38:38.788Z,100.00
2023-04-15T23:41:06.575Z,100.00
2023-04-15T23:43:34.487Z,100.00
2023-04-15T23:46:02.543Z,100.00
2023-04-15T23:48:31.192Z,100.00
2023-04-15T23:50:59.025Z,100.00
2023-04-15T23:53:27.555Z,100.00
2023-04-15T23:55:56.446Z,100.00
2023-04-15T23:58:24.215Z,100.00
